Time;durP1;ratioP1;P1;durP2;ratioP2;P2;SDS_P1;SDS_P2;PMS_P1;PMS_P2;Temp;Humidity;BMP_temperature;BMP_pressure;BME280_temperature;BME280_humidity;BME280_pressure;Samples;Min_cycle;Max_cycle;Signal;HPM_P1;HPM_P2
2023/05/17 00:00:33;;;;;;;2.80;2.17;;;11.10;99.90;;;;;;5219942;28;20028;-74
2023/05/17 00:03:04;;;;;;;2.27;2.03;;;11.00;99.90;;;;;;5218264;28;20044;-74
2023/05/17 00:05:36;;;;;;;2.35;2.15;;;11.00;99.90;;;;;;5207519;28;20301;-74
2023/05/17 00:08:13;;;;;;;2.30;2.10;;;11.00;99.90;;;;;;5216543;28;20048;-73
2023/05/17 00:10:44;;;;;;;2.95;2.20;;;11.00;99.90;;;;;;5225776;28;20036;-73
2023/05/17 00:13:15;;;;;;;4.57;2.35;;;11.00;99.90;;;;;;5225764;28;20397;-73
2023/05/17 00:15:47;;;;;;;3.92;2.42;;;11.00;99.90;;;;;;5224036;28;20036;-72
2023/05/17 00:18:20;;;;;;;3.97;2.40;;;11.00;99.90;;;;;;5239215;28;20028;-73
2023/05/17 00:20:51;;;;;;;2.67;2.38;;;11.00;99.90;;;;;;5224137;28;20031;-74
2023/05/17 00:23:27;;;;;;;2.33;2.10;;;10.90;99.90;;;;;;5206113;28;20028;-75
2023/05/17 00:25:58;;;;;;;2.65;1.75;;;10.90;99.90;;;;;;5225668;28;20032;-75
2023/05/17 00:28:32;;;;;;;2.55;1.75;;;10.90;99.90;;;;;;5223830;28;20264;-75
2023/05/17 00:31:08;;;;;;;2.13;1.73;;;10.90;99.90;;;;;;5243549;28;20043;-75
2023/05/17 00:33:42;;;;;;;4.68;1.90;;;10.90;99.90;;;;;;5263904;28;20085;-74
2023/05/17 00:36:16;;;;;;;1.77;1.52;;;10.80;99.90;;;;;;5265268;28;20030;-74
2023/05/17 00:38:47;;;;;;;1.52;1.42;;;10.80;99.90;;;;;;5246757;28;20042;-74
2023/05/17 00:41:18;;;;;;;1.67;1.58;;;10.80;99.90;;;;;;5244094;28;20032;-74
2023/05/17 00:43:52;;;;;;;2.47;1.67;;;10.70;99.90;;;;;;5242917;28;20032;-75
2023/05/17 00:46:26;;;;;;;2.33;1.70;;;10.70;99.90;;;;;;5223207;28;20043;-74
2023/05/17 00:48:58;;;;;;;2.30;1.83;;;10.70;99.90;;;;;;5200875;28;20304;-74
2023/05/17 00:51:32;;;;;;;1.33;1.23;;;10.70;99.90;;;;;;5243452;28;20024;-74
2023/05/17 00:54:04;;;;;;;1.95;1.50;;;10.70;99.90;;;;;;5209540;28;20036;-75
2023/05/17 00:56:35;;;;;;;1.92;1.70;;;10.70;99.90;;;;;;5223207;28;20028;-75
2023/05/17 00:59:08;;;;;;;2.00;1.80;;;10.70;99.90;;;;;;5219748;28;20040;-75
2023/05/17 01:01:44;;;;;;;1.63;1.30;;;10.60;99.90;;;;;;5287651;22;20049;-74
2023/05/17 01:04:15;;;;;;;1.88;1.77;;;10.70;99.90;;;;;;5225097;28;20040;-75
2023/05/17 01:06:48;;;;;;;2.63;1.98;;;10.70;99.90;;;;;;5221030;28;20040;-74
2023/05/17 01:09:21;;;;;;;1.60;1.30;;;10.60;99.90;;;;;;5223163;28;20021;-74
2023/05/17 01:11:58;;;;;;;1.30;1.20;;;10.60;99.90;;;;;;5230792;28;20037;-74
2023/05/17 01:14:53;;;;;;;2.80;1.65;;;10.60;99.90;;;;;;5205379;28;20046;-75
2023/05/17 01:17:34;;;;;;;1.92;1.75;;;10.60;99.90;;;;;;5206117;28;20028;-74
2023/05/17 01:20:18;;;;;;;1.60;1.30;;;10.60;99.90;;;;;;5208671;28;20035;-75
2023/05/17 01:22:57;;;;;;;1.50;1.30;;;10.60;99.90;;;;;;5243616;28;20051;-74
2023/05/17 01:25:35;;;;;;;1.35;1.02;;;10.60;99.90;;;;;;5223887;28;20032;-74
2023/05/17 01:28:09;;;;;;;1.48;1.38;;;10.50;99.90;;;;;;5210185;28;20366;-74
2023/05/17 01:30:45;;;;;;;1.55;1.30;;;10.50;99.90;;;;;;5214869;28;20613;-74
2023/05/17 01:33:18;;;;;;;1.95;1.65;;;10.50;99.90;;;;;;5245776;28;20348;-74
2023/05/17 01:35:50;;;;;;;1.13;1.02;;;10.50;99.90;;;;;;5209496;28;20032;-76
2023/05/17 01:38:21;;;;;;;1.30;1.20;;;10.50;99.90;;;;;;5210112;28;20111;-74
2023/05/17 01:41:05;;;;;;;1.70;1.20;;;10.50;99.90;;;;;;5245715;28;20020;-74
2023/05/17 01:44:01;;;;;;;1.70;1.50;;;10.50;99.90;;;;;;5244174;28;20371;-75
2023/05/17 01:46:41;;;;;;;1.27;1.17;;;10.40;99.90;;;;;;5227710;28;20169;-74
2023/05/17 01:49:32;;;;;;;1.58;1.40;;;10.40;99.90;;;;;;5211708;28;20565;-74
2023/05/17 01:52:07;;;;;;;1.15;1.05;;;10.40;99.90;;;;;;5227898;28;20028;-73
2023/05/17 01:55:07;;;;;;;1.35;1.25;;;10.40;99.90;;;;;;5224051;28;20025;-73
2023/05/17 01:57:49;;;;;;;1.25;1.10;;;10.40;99.90;;;;;;5214052;28;20042;-74
2023/05/17 02:00:23;;;;;;;1.52;1.30;;;10.40;99.90;;;;;;5221890;28;20032;-74
2023/05/17 02:02:55;;;;;;;1.30;1.20;;;10.30;99.90;;;;;;5244201;28;20037;-74
2023/05/17 02:05:30;;;;;;;1.30;1.15;;;10.30;99.90;;;;;;5203330;28;20052;-74
2023/05/17 02:08:02;;;;;;;1.00;1.00;;;10.30;99.90;;;;;;5204761;28;20032;-74
2023/05/17 02:10:34;;;;;;;0.77;0.77;;;10.30;99.90;;;;;;5204589;28;20029;-74
2023/05/17 02:13:05;;;;;;;1.13;1.02;;;10.30;99.90;;;;;;5186993;28;20039;-75
2023/05/17 02:15:37;;;;;;;2.45;1.40;;;10.20;99.90;;;;;;5195469;28;20045;-74
2023/05/17 02:18:11;;;;;;;1.33;1.02;;;10.20;99.90;;;;;;5186962;28;20040;-74
2023/05/17 02:20:45;;;;;;;0.90;0.90;;;10.20;99.90;;;;;;5186666;28;20043;-74
2023/05/17 02:23:20;;;;;;;0.82;0.82;;;10.20;99.90;;;;;;5220135;28;20223;-74
2023/05/17 02:25:54;;;;;;;1.33;1.20;;;10.20;99.90;;;;;;5199085;28;20044;-74
2023/05/17 02:28:29;;;;;;;0.90;0.90;;;10.20;99.90;;;;;;5202802;28;20631;-73
2023/05/17 02:31:00;;;;;;;1.23;1.13;;;10.20;99.90;;;;;;5202166;28;20361;-73
2023/05/17 02:33:32;;;;;;;1.00;1.00;;;10.20;99.90;;;;;;5207201;28;20038;-74
2023/05/17 02:36:04;;;;;;;1.30;1.20;;;10.10;99.90;;;;;;5186239;28;20362;-73
2023/05/17 02:38:35;;;;;;;1.15;1.05;;;10.20;99.90;;;;;;5203536;28;20059;-73
2023/05/17 02:41:07;;;;;;;1.23;1.13;;;10.10;99.90;;;;;;5204062;28;20037;-74
2023/05/17 02:43:38;;;;;;;0.90;0.90;;;10.10;99.90;;;;;;5218090;28;20028;-73
2023/05/17 02:46:10;;;;;;;1.08;0.98;;;10.10;99.90;;;;;;5184842;28;20194;-72
2023/05/17 02:48:49;;;;;;;1.17;1.08;;;10.10;99.90;;;;;;5203074;28;20036;-73
2023/05/17 02:51:20;;;;;;;1.50;1.40;;;10.10;99.90;;;;;;5222459;28;20039;-75
2023/05/17 02:53:57;;;;;;;1.35;1.23;;;10.10;99.90;;;;;;5224239;28;20033;-72
2023/05/17 02:56:30;;;;;;;1.02;0.93;;;10.00;99.90;;;;;;5235495;28;20029;-73
2023/05/17 02:59:01;;;;;;;1.30;1.20;;;10.00;99.90;;;;;;5213051;28;20513;-73
2023/05/17 03:01:33;;;;;;;1.92;1.73;;;10.00;99.90;;;;;;5201086;28;20250;-73
2023/05/17 03:04:06;;;;;;;1.10;1.10;;;10.00;99.90;;;;;;5183244;28;20033;-73
2023/05/17 03:06:40;;;;;;;1.23;1.10;;;10.00;99.90;;;;;;5193240;28;20045;-73
2023/05/17 03:09:11;;;;;;;2.92;2.15;;;10.00;99.90;;;;;;5221531;28;20029;-73
2023/05/17 03:11:45;;;;;;;1.40;1.30;;;10.00;99.90;;;;;;5214422;28;20355;-74
2023/05/17 03:14:16;;;;;;;1.45;1.25;;;9.90;99.90;;;;;;5186942;28;20047;-73
2023/05/17 03:16:50;;;;;;;0.90;0.90;;;9.90;99.90;;;;;;5218834;28;20305;-73
2023/05/17 03:19:22;;;;;;;2.63;1.77;;;9.90;99.90;;;;;;5220498;28;20041;-73
2023/05/17 03:21:55;;;;;;;4.03;1.55;;;9.90;99.90;;;;;;5201298;28;20033;-73
2023/05/17 03:24:27;;;;;;;1.92;1.75;;;9.90;99.90;;;;;;5202432;28;20041;-72
2023/05/17 03:27:06;;;;;;;1.20;1.10;;;9.80;99.90;;;;;;5206229;28;20036;-74
2023/05/17 03:29:40;;;;;;;1.50;1.40;;;9.80;99.90;;;;;;5223629;28;20047;-73
2023/05/17 03:32:14;;;;;;;1.13;1.02;;;9.80;99.90;;;;;;5207364;28;20044;-73
2023/05/17 03:34:45;;;;;;;1.48;1.38;;;9.80;99.90;;;;;;5201310;28;20044;-72
2023/05/17 03:37:19;;;;;;;2.13;1.20;;;9.70;99.90;;;;;;5203935;28;20036;-73
2023/05/17 03:39:50;;;;;;;2.27;2.07;;;9.70;99.90;;;;;;5219654;28;20039;-72
2023/05/17 03:42:22;;;;;;;1.63;1.52;;;9.70;99.90;;;;;;5200432;28;20037;-72
2023/05/17 03:44:55;;;;;;;1.52;1.42;;;9.70;99.90;;;;;;5220479;28;20394;-73
2023/05/17 03:47:26;;;;;;;1.58;1.40;;;9.70;99.90;;;;;;5201414;28;20677;-72
2023/05/17 03:50:00;;;;;;;1.33;1.20;;;9.70;99.90;;;;;;5202802;28;20039;-72
2023/05/17 03:52:34;;;;;;;1.95;1.85;;;9.70;99.90;;;;;;5201973;28;20039;-73
2023/05/17 03:55:08;;;;;;;1.97;1.63;;;9.60;99.90;;;;;;5173825;28;20322;-73
2023/05/17 03:57:42;;;;;;;1.83;1.73;;;9.60;99.90;;;;;;5219754;28;20262;-73
2023/05/17 04:00:20;;;;;;;3.92;1.33;;;9.60;99.90;;;;;;5200694;28;20340;-73
2023/05/17 04:02:52;;;;;;;1.20;1.10;;;9.60;99.90;;;;;;5205451;28;20036;-73
2023/05/17 04:05:26;;;;;;;1.70;1.50;;;9.50;99.90;;;;;;5212986;28;20088;-73
2023/05/17 04:08:00;;;;;;;1.02;1.00;;;9.50;99.90;;;;;;5206431;28;20044;-74
2023/05/17 04:10:31;;;;;;;1.30;1.27;;;9.50;99.90;;;;;;5224408;28;20206;-73
2023/05/17 04:13:05;;;;;;;2.35;1.17;;;9.50;99.90;;;;;;5191998;28;20040;-72
2023/05/17 04:15:36;;;;;;;3.10;1.67;;;9.50;99.90;;;;;;5203234;28;20178;-73
2023/05/17 04:18:07;;;;;;;1.10;1.00;;;9.50;99.90;;;;;;5223080;28;20033;-75
2023/05/17 04:20:38;;;;;;;1.80;1.67;;;9.40;99.90;;;;;;5217013;28;20029;-72
2023/05/17 04:23:12;;;;;;;1.50;1.40;;;9.40;99.90;;;;;;5199214;28;20343;-72
2023/05/17 04:25:44;;;;;;;3.10;1.17;;;9.40;99.90;;;;;;5224179;28;20039;-72
2023/05/17 04:28:20;;;;;;;1.00;1.00;;;9.40;99.90;;;;;;5223157;28;20405;-73
2023/05/17 04:30:52;;;;;;;1.00;1.00;;;9.30;99.90;;;;;;5203480;28;20024;-73
2023/05/17 04:33:26;;;;;;;1.27;1.17;;;9.30;99.90;;;;;;5197774;28;20033;-72
2023/05/17 04:35:57;;;;;;;;;;;9.30;99.90;;;;;;5201811;28;20115;-72
2023/05/17 04:38:30;;;;;;;1.70;1.35;;;9.20;99.90;;;;;;5211005;28;20406;-72
2023/05/17 04:41:05;;;;;;;1.23;1.23;;;9.20;99.90;;;;;;5195430;28;20032;-72
2023/05/17 04:43:39;;;;;;;1.02;0.98;;;9.20;99.90;;;;;;5199404;28;20033;-71
2023/05/17 04:46:11;;;;;;;3.28;1.30;;;9.10;99.90;;;;;;5219070;28;20044;-72
2023/05/17 04:48:43;;;;;;;1.15;1.10;;;9.10;99.90;;;;;;5199566;28;20052;-71
2023/05/17 04:51:16;;;;;;;3.65;1.40;;;9.10;99.90;;;;;;5220211;28;20232;-71
2023/05/17 04:53:48;;;;;;;1.73;1.63;;;9.10;99.90;;;;;;5203786;28;20043;-73
2023/05/17 04:56:22;;;;;;;2.53;1.85;;;9.00;99.90;;;;;;5222967;28;20414;-72
2023/05/17 04:58:53;;;;;;;1.05;1.02;;;9.00;99.90;;;;;;5221823;28;20025;-72
2023/05/17 05:01:29;;;;;;;1.40;1.20;;;9.00;99.90;;;;;;5202460;28;20513;-70
2023/05/17 05:04:05;;;;;;;2.08;1.48;;;9.00;99.90;;;;;;5203601;28;20528;-71
2023/05/17 05:06:39;;;;;;;1.30;1.20;;;9.00;99.90;;;;;;5194632;28;20063;-72
2023/05/17 05:09:11;;;;;;;1.40;1.25;;;8.90;99.90;;;;;;5220904;28;20041;-70
2023/05/17 05:11:45;;;;;;;1.75;1.30;;;8.90;99.90;;;;;;5222167;28;20218;-71
2023/05/17 05:14:20;;;;;;;2.10;1.50;;;8.90;99.90;;;;;;5221220;28;20037;-72
2023/05/17 05:16:52;;;;;;;1.83;1.50;;;8.80;99.90;;;;;;5222432;28;20346;-71
2023/05/17 05:19:23;;;;;;;1.08;0.95;;;8.80;99.90;;;;;;5206385;28;20041;-72
2023/05/17 05:21:56;;;;;;;1.15;1.10;;;8.80;99.90;;;;;;5187715;28;20041;-73
2023/05/17 05:24:31;;;;;;;0.80;0.80;;;8.80;99.90;;;;;;5201192;28;20353;-72
2023/05/17 05:27:02;;;;;;;;;;;8.80;99.90;;;;;;5224023;28;20023;-73
2023/05/17 05:29:36;;;;;;;1.15;1.08;;;8.80;99.90;;;;;;5223773;28;19913;-70
2023/05/17 05:32:07;;;;;;;1.38;1.20;;;8.70;99.90;;;;;;5202123;28;20032;-71
2023/05/17 05:34:39;;;;;;;1.83;1.45;;;8.70;99.90;;;;;;5219494;28;20037;-72
2023/05/17 05:37:13;;;;;;;1.27;1.17;;;8.70;99.90;;;;;;5225168;28;20027;-71
2023/05/17 05:39:45;;;;;;;3.00;1.50;;;8.60;99.90;;;;;;5204645;28;20524;-71
2023/05/17 05:42:18;;;;;;;1.50;1.33;;;8.60;99.90;;;;;;5187006;28;20033;-71
2023/05/17 05:44:50;;;;;;;1.55;1.20;;;8.60;99.90;;;;;;5204605;28;20033;-72
2023/05/17 05:47:21;;;;;;;3.00;1.63;;;8.60;99.90;;;;;;5218518;28;20040;-74
2023/05/17 05:49:55;;;;;;;2.83;1.60;;;8.60;99.90;;;;;;5222559;28;20033;-72
2023/05/17 05:52:26;;;;;;;2.42;1.40;;;8.60;99.90;;;;;;5220777;28;20032;-72
2023/05/17 05:54:59;;;;;;;1.20;1.20;;;8.50;99.90;;;;;;5200087;28;20035;-70
2023/05/17 05:57:30;;;;;;;1.70;1.60;;;8.60;99.90;;;;;;5190242;28;20037;-71
2023/05/17 06:00:03;;;;;;;0.90;0.90;;;8.60;99.90;;;;;;5187995;28;20547;-69
2023/05/17 06:02:36;;;;;;;1.58;1.48;;;8.60;99.90;;;;;;5232612;28;20036;-73
2023/05/17 06:05:10;;;;;;;2.90;1.67;;;8.60;99.90;;;;;;5166966;28;20055;-70
2023/05/17 06:07:46;;;;;;;2.95;1.60;;;8.60;99.90;;;;;;5218386;28;20478;-70
2023/05/17 06:10:18;;;;;;;1.40;1.30;;;8.60;99.90;;;;;;5227057;28;20038;-72
2023/05/17 06:12:49;;;;;;;1.73;1.55;;;8.60;99.90;;;;;;5226834;28;20025;-70
2023/05/17 06:15:23;;;;;;;2.33;1.45;;;8.70;99.90;;;;;;5220702;28;20036;-71
2023/05/17 06:17:54;;;;;;;2.03;1.92;;;8.70;99.90;;;;;;5219574;28;20036;-70
2023/05/17 06:20:28;;;;;;;3.22;1.80;;;8.70;99.90;;;;;;5202757;28;20033;-70
2023/05/17 06:23:00;;;;;;;2.47;2.08;;;8.70;99.90;;;;;;5216504;28;20353;-71
2023/05/17 06:25:32;;;;;;;1.50;1.40;;;8.80;99.90;;;;;;5186146;28;20299;-70
2023/05/17 06:28:08;;;;;;;1.38;1.27;;;8.80;99.90;;;;;;5213610;28;20037;-69
2023/05/17 06:30:42;;;;;;;1.45;1.23;;;8.80;99.90;;;;;;5211431;28;20045;-71
2023/05/17 06:33:18;;;;;;;1.67;1.58;;;8.80;99.90;;;;;;5223456;28;20036;-70
2023/05/17 06:35:53;;;;;;;3.53;2.13;;;8.80;99.90;;;;;;5219229;28;20269;-71
2023/05/17 06:38:27;;;;;;;2.10;1.73;;;8.80;99.90;;;;;;5212266;28;20036;-71
2023/05/17 06:41:01;;;;;;;1.63;1.52;;;8.80;99.90;;;;;;5228920;28;20025;-70
2023/05/17 06:43:35;;;;;;;1.38;1.27;;;8.80;99.90;;;;;;5202215;28;20030;-71
2023/05/17 06:46:12;;;;;;;1.77;1.65;;;8.90;99.90;;;;;;5223021;28;20323;-71
2023/05/17 06:48:43;;;;;;;1.55;1.42;;;8.90;99.90;;;;;;5196538;28;20257;-71
2023/05/17 06:51:17;;;;;;;2.15;1.95;;;8.80;99.90;;;;;;5220256;28;20029;-70
2023/05/17 06:53:49;;;;;;;2.67;1.50;;;8.80;99.90;;;;;;5210319;28;20048;-73
2023/05/17 06:56:21;;;;;;;3.10;1.90;;;8.80;99.90;;;;;;5202697;28;20025;-73
2023/05/17 06:58:52;;;;;;;2.00;1.90;;;8.80;99.90;;;;;;5230839;28;20217;-72
2023/05/17 07:01:24;;;;;;;1.73;1.60;;;8.80;99.90;;;;;;5187225;28;20043;-72
2023/05/17 07:03:56;;;;;;;2.15;1.83;;;8.80;99.90;;;;;;5200974;28;20037;-73
2023/05/17 07:06:32;;;;;;;2.10;1.90;;;8.80;99.90;;;;;;5205881;28;20079;-73
2023/05/17 07:09:09;;;;;;;1.80;1.70;;;8.80;99.90;;;;;;5208749;28;20044;-73
2023/05/17 07:11:41;;;;;;;1.98;1.83;;;8.80;99.90;;;;;;5204619;28;20573;-73
2023/05/17 07:14:12;;;;;;;2.95;2.38;;;8.80;99.90;;;;;;5200864;28;20040;-72
2023/05/17 07:16:43;;;;;;;2.45;2.25;;;8.80;99.90;;;;;;5197639;28;20037;-73
2023/05/17 07:19:17;;;;;;;4.43;2.03;;;8.80;99.90;;;;;;5216996;28;20067;-72
2023/05/17 07:21:51;;;;;;;2.65;2.10;;;8.80;99.90;;;;;;5206210;28;20024;-72
2023/05/17 07:24:23;;;;;;;2.65;1.65;;;8.80;99.90;;;;;;5214965;28;20032;-72
2023/05/17 07:26:57;;;;;;;1.65;1.55;;;8.80;99.90;;;;;;5209717;28;20039;-72
2023/05/17 07:29:28;;;;;;;;;;;8.80;99.90;;;;;;5237798;28;20043;-74
2023/05/17 07:32:02;;;;;;;2.15;1.83;;;8.90;99.90;;;;;;5217359;28;20463;-74
2023/05/17 07:34:34;;;;;;;3.40;3.10;;;8.90;99.90;;;;;;5217707;28;20025;-74
2023/05/17 07:37:05;;;;;;;1.73;1.52;;;8.90;99.90;;;;;;5215997;28;20249;-73
2023/05/17 07:39:38;;;;;;;3.22;2.05;;;8.90;99.90;;;;;;5225656;28;20051;-72
2023/05/17 07:42:13;;;;;;;3.30;2.10;;;8.90;99.90;;;;;;5212161;28;20337;-71
2023/05/17 07:44:44;;;;;;;;;;;8.90;99.90;;;;;;5198820;28;20568;-72
2023/05/17 07:47:18;;;;;;;1.35;1.25;;;9.00;99.90;;;;;;5209865;28;20518;-72
2023/05/17 07:49:54;;;;;;;2.38;2.15;;;9.00;99.90;;;;;;5222918;28;20077;-72
2023/05/17 07:52:25;;;;;;;3.17;2.10;;;9.00;99.90;;;;;;5213318;28;20017;-71
2023/05/17 07:55:00;;;;;;;2.65;1.65;;;9.00;99.90;;;;;;5191029;28;20070;-71
2023/05/17 07:57:33;;;;;;;1.73;1.60;;;9.00;99.90;;;;;;5227358;28;20037;-73
2023/05/17 08:00:05;;;;;;;2.38;1.65;;;9.10;99.90;;;;;;5193385;28;20056;-73
2023/05/17 08:02:36;;;;;;;1.23;1.13;;;9.00;99.90;;;;;;5218896;28;20052;-73
2023/05/17 08:05:13;;;;;;;2.03;1.63;;;9.00;99.90;;;;;;5224171;28;20051;-72
2023/05/17 08:07:51;;;;;;;2.60;2.10;;;9.00;99.90;;;;;;5217368;28;20029;-73
2023/05/17 08:10:26;;;;;;;2.10;1.75;;;9.00;99.90;;;;;;5237081;28;20029;-73
2023/05/17 08:12:57;;;;;;;1.83;1.73;;;9.00;99.90;;;;;;5223548;28;20037;-72
2023/05/17 08:15:32;;;;;;;2.38;1.52;;;9.00;99.90;;;;;;5236308;28;20040;-72
2023/05/17 08:18:03;;;;;;;1.33;1.23;;;8.90;99.90;;;;;;5211308;28;20033;-71
2023/05/17 08:20:37;;;;;;;1.73;1.63;;;8.80;99.90;;;;;;5203574;28;20067;-72
2023/05/17 08:23:10;;;;;;;2.10;1.48;;;8.80;99.90;;;;;;5230447;28;20031;-71
2023/05/17 08:25:42;;;;;;;1.90;1.80;;;8.80;99.90;;;;;;5223340;28;20045;-70
2023/05/17 08:28:18;;;;;;;5.72;2.30;;;8.90;99.90;;;;;;5199622;28;20028;-71
2023/05/17 08:30:52;;;;;;;3.95;1.67;;;8.80;99.90;;;;;;5229099;28;20024;-72
2023/05/17 08:33:26;;;;;;;1.88;1.75;;;8.80;99.90;;;;;;5240161;28;20022;-71
2023/05/17 08:36:00;;;;;;;6.03;1.98;;;8.80;99.90;;;;;;5190187;28;20414;-71
2023/05/17 08:38:34;;;;;;;2.15;1.75;;;8.80;99.90;;;;;;5205250;28;20028;-71
2023/05/17 08:41:05;;;;;;;1.42;1.33;;;8.70;99.90;;;;;;5219494;28;20516;-70
2023/05/17 08:43:39;;;;;;;2.13;1.27;;;8.70;99.90;;;;;;5207893;28;20028;-72
2023/05/17 08:46:15;;;;;;;2.30;1.50;;;8.80;99.90;;;;;;5192553;28;20047;-70
2023/05/17 08:48:51;;;;;;;2.03;1.30;;;8.80;99.90;;;;;;5231702;28;20225;-70
2023/05/17 08:51:23;;;;;;;1.35;1.20;;;8.80;99.90;;;;;;5234318;28;20059;-69
2023/05/17 08:53:57;;;;;;;1.67;1.50;;;8.80;99.90;;;;;;5208972;28;20031;-71
2023/05/17 08:56:29;;;;;;;;;;;8.80;99.90;;;;;;5227231;28;20035;-72
2023/05/17 08:59:04;;;;;;;3.72;2.20;;;8.80;99.90;;;;;;5218466;28;19913;-72
2023/05/17 09:01:42;;;;;;;1.48;1.38;;;8.90;99.90;;;;;;5224829;28;20040;-72
2023/05/17 09:04:15;;;;;;;9.18;2.10;;;8.90;99.90;;;;;;5211659;28;20039;-72
2023/05/17 09:06:49;;;;;;;3.03;1.67;;;9.00;99.90;;;;;;5220375;28;20043;-70
2023/05/17 09:09:20;;;;;;;1.20;1.10;;;9.00;99.90;;;;;;5208368;28;20084;-72
2023/05/17 09:11:55;;;;;;;1.27;1.17;;;9.00;99.90;;;;;;5179390;28;20039;-73
2023/05/17 09:14:35;;;;;;;1.33;1.23;;;9.10;99.90;;;;;;5195690;28;20406;-73
2023/05/17 09:17:07;;;;;;;1.30;1.15;;;9.10;99.90;;;;;;5184983;28;20044;-73
2023/05/17 09:19:44;;;;;;;1.60;1.48;;;9.20;99.90;;;;;;5205741;28;20612;-73
2023/05/17 09:22:21;;;;;;;1.20;1.10;;;9.20;99.90;;;;;;5216881;28;20046;-73
2023/05/17 09:25:03;;;;;;;2.90;2.22;;;9.20;99.90;;;;;;5213354;28;20032;-75
2023/05/17 09:27:35;;;;;;;1.88;1.35;;;9.20;99.90;;;;;;5200150;28;20071;-75
2023/05/17 09:30:09;;;;;;;1.60;1.15;;;9.20;99.90;;;;;;5186825;28;20632;-75
2023/05/17 09:32:47;;;;;;;1.98;1.27;;;9.20;99.90;;;;;;5188136;28;20038;-72
2023/05/17 09:35:18;;;;;;;2.40;1.83;;;9.20;99.90;;;;;;5189918;28;20044;-70
2023/05/17 09:37:52;;;;;;;1.40;1.30;;;9.20;99.90;;;;;;5193704;28;20036;-74
2023/05/17 09:40:30;;;;;;;4.68;2.55;;;9.10;99.90;;;;;;5236193;28;20031;-74
2023/05/17 09:43:01;;;;;;;1.42;1.33;;;9.10;99.90;;;;;;5228838;28;20037;-74
2023/05/17 09:45:39;;;;;;;1.98;1.77;;;9.10;99.90;;;;;;5201777;28;20037;-72
2023/05/17 09:48:17;;;;;;;2.95;1.55;;;9.10;99.90;;;;;;5230547;28;20040;-74
2023/05/17 09:50:51;;;;;;;1.20;1.10;;;9.20;99.90;;;;;;5191422;28;20032;-74
2023/05/17 09:53:28;;;;;;;1.20;1.17;;;9.20;99.90;;;;;;5198727;28;20067;-73
2023/05/17 09:56:01;;;;;;;2.50;1.58;;;9.20;99.90;;;;;;5204129;28;20058;-72
2023/05/17 09:58:38;;;;;;;1.90;1.17;;;9.20;99.90;;;;;;5197744;28;20466;-72
2023/05/17 10:01:15;;;;;;;1.60;1.30;;;9.10;99.90;;;;;;5202109;28;20024;-71
2023/05/17 10:03:49;;;;;;;5.80;1.00;;;9.10;99.90;;;;;;5221013;28;20044;-71
2023/05/17 10:06:24;;;;;;;1.83;1.73;;;9.20;99.90;;;;;;5169748;28;20044;-70
2023/05/17 10:08:57;;;;;;;1.30;1.20;;;9.30;99.90;;;;;;5198567;28;20036;-72
2023/05/17 10:11:36;;;;;;;1.42;1.33;;;9.30;99.90;;;;;;5190688;28;20352;-73
2023/05/17 10:14:12;;;;;;;2.33;1.58;;;9.20;99.90;;;;;;5207839;28;20024;-72
2023/05/17 10:16:44;;;;;;;1.45;1.35;;;9.30;99.90;;;;;;5197776;28;20041;-72
2023/05/17 10:19:18;;;;;;;0.82;0.82;;;9.20;99.90;;;;;;5213078;28;20040;-70
2023/05/17 10:21:56;;;;;;;1.80;1.70;;;9.30;99.90;;;;;;5237552;28;20017;-71
2023/05/17 10:24:31;;;;;;;1.02;1.02;;;9.20;99.90;;;;;;5229394;28;20198;-71
2023/05/17 10:27:05;;;;;;;1.48;1.38;;;9.20;99.90;;;;;;5223865;28;20037;-71
2023/05/17 10:29:38;;;;;;;1.20;1.10;;;9.20;99.90;;;;;;5208941;28;20045;-71
2023/05/17 10:32:16;;;;;;;1.42;1.33;;;9.20;99.90;;;;;;5198366;28;20351;-70
2023/05/17 10:34:49;;;;;;;1.38;1.35;;;9.20;99.90;;;;;;5222695;28;20213;-71
2023/05/17 10:37:23;;;;;;;1.25;1.17;;;9.10;99.90;;;;;;5188287;28;20039;-70
2023/05/17 10:39:55;;;;;;;1.20;1.13;;;9.10;99.90;;;;;;5213026;28;20043;-73
2023/05/17 10:42:27;;;;;;;1.02;0.95;;;9.20;99.90;;;;;;5199308;28;20036;-71
2023/05/17 10:45:05;;;;;;;1.88;1.65;;;9.10;99.90;;;;;;5205238;28;20029;-72
2023/05/17 10:47:44;;;;;;;18.40;2.25;;;9.10;99.90;;;;;;5207083;28;20031;-72
2023/05/17 10:50:25;;;;;;;2.30;0.93;;;9.10;99.90;;;;;;5177291;28;20072;-72
2023/05/17 10:52:59;;;;;;;1.02;1.02;;;9.10;99.90;;;;;;5168927;28;20032;-72
2023/05/17 10:55:42;;;;;;;1.25;1.15;;;9.10;99.90;;;;;;5189313;28;20049;-73
2023/05/17 10:58:16;;;;;;;1.20;1.10;;;9.10;99.90;;;;;;5194404;28;20048;-73
2023/05/17 11:00:52;;;;;;;1.27;1.17;;;9.20;99.90;;;;;;5204782;28;20024;-73
2023/05/17 11:03:27;;;;;;;1.25;1.15;;;9.10;99.90;;;;;;5204350;28;20198;-71
2023/05/17 11:06:17;;;;;;;1.15;1.05;;;8.90;99.90;;;;;;5168580;28;20092;-72
2023/05/17 11:09:15;;;;;;;1.55;1.45;;;8.80;99.90;;;;;;5193122;28;20132;-71
2023/05/17 11:12:12;;;;;;;5.03;1.45;;;8.80;99.90;;;;;;5183678;28;20021;-71
2023/05/17 11:14:53;;;;;;;2.60;1.95;;;8.80;99.90;;;;;;5193001;28;20037;-72
2023/05/17 11:17:27;;;;;;;2.10;1.50;;;8.80;99.90;;;;;;5177585;28;20052;-71
2023/05/17 11:20:05;;;;;;;2.78;1.92;;;8.80;99.90;;;;;;5207295;28;20028;-72
2023/05/17 11:22:43;;;;;;;1.17;1.17;;;8.70;99.90;;;;;;5179344;28;20040;-71
2023/05/17 11:25:18;;;;;;;1.38;1.27;;;8.60;99.90;;;;;;5210513;28;20451;-72
2023/05/17 11:27:51;;;;;;;2.33;2.22;;;8.60;99.90;;;;;;5212384;28;20031;-72
2023/05/17 11:30:31;;;;;;;2.67;2.08;;;8.60;99.90;;;;;;5206979;28;20041;-72
2023/05/17 11:33:05;;;;;;;2.05;1.48;;;8.60;99.90;;;;;;5210557;28;20028;-72
2023/05/17 11:35:43;;;;;;;3.80;1.67;;;8.60;99.90;;;;;;5202465;28;20033;-72
2023/05/17 11:38:26;;;;;;;2.13;1.52;;;8.60;99.90;;;;;;5203164;28;20032;-71
2023/05/17 11:41:15;;;;;;;2.00;1.83;;;8.60;99.90;;;;;;5202750;28;20024;-72
2023/05/17 11:43:54;;;;;;;1.90;1.80;;;8.60;99.90;;;;;;5202049;28;20047;-73
2023/05/17 11:46:33;;;;;;;2.50;2.30;;;8.60;99.90;;;;;;5212231;28;20455;-73
2023/05/17 11:49:09;;;;;;;2.03;1.83;;;8.70;99.90;;;;;;5208836;28;20427;-73
2023/05/17 11:51:44;;;;;;;4.40;1.65;;;8.70;99.90;;;;;;5173874;28;20037;-73
2023/05/17 11:54:16;;;;;;;1.88;1.17;;;8.70;99.90;;;;;;5169201;28;20041;-73
2023/05/17 11:56:49;;;;;;;2.58;1.67;;;8.80;99.90;;;;;;5174514;28;20051;-73
2023/05/17 11:59:20;;;;;;;1.65;1.45;;;8.80;99.90;;;;;;5222034;28;20041;-73
2023/05/17 12:01:55;;;;;;;3.05;2.55;;;8.80;99.90;;;;;;5193813;28;20047;-72
2023/05/17 12:04:26;;;;;;;1.73;1.63;;;8.70;99.90;;;;;;5171001;28;20040;-72
2023/05/17 12:07:02;;;;;;;3.70;2.03;;;8.70;99.90;;;;;;5210213;28;20036;-71
2023/05/17 12:09:37;;;;;;;1.35;1.25;;;8.70;99.90;;;;;;5190767;28;20040;-72
2023/05/17 12:12:08;;;;;;;;;;;8.80;99.90;;;;;;5207434;28;20033;-72
2023/05/17 12:14:43;;;;;;;2.13;1.90;;;8.80;99.90;;;;;;5210327;28;19900;-71
2023/05/17 12:17:30;;;;;;;1.55;1.45;;;8.70;99.90;;;;;;5172436;28;20046;-72
2023/05/17 12:20:09;;;;;;;1.80;1.70;;;8.80;99.90;;;;;;5201164;28;20039;-72
2023/05/17 12:22:56;;;;;;;2.22;2.08;;;8.80;99.90;;;;;;5203730;28;20035;-72
2023/05/17 12:25:29;;;;;;;2.38;1.67;;;8.90;99.90;;;;;;5203013;28;20044;-71
2023/05/17 12:28:17;;;;;;;2.42;2.22;;;8.90;99.90;;;;;;5207482;28;20031;-72
2023/05/17 12:31:01;;;;;;;3.10;1.52;;;8.90;99.90;;;;;;5213488;28;20044;-73
2023/05/17 12:33:40;;;;;;;1.55;1.42;;;8.80;99.90;;;;;;5199601;28;20028;-72
2023/05/17 12:36:12;;;;;;;1.33;1.23;;;8.80;99.90;;;;;;5187375;28;20033;-73
2023/05/17 12:38:49;;;;;;;1.95;1.75;;;8.80;99.90;;;;;;5206972;28;20483;-73
2023/05/17 12:41:25;;;;;;;1.30;1.20;;;8.80;99.90;;;;;;5203340;28;20028;-74
2023/05/17 12:43:58;;;;;;;1.33;1.23;;;8.80;99.90;;;;;;5188664;28;20041;-73
2023/05/17 12:46:31;;;;;;;2.08;1.63;;;8.80;99.90;;;;;;5192004;28;20029;-73
2023/05/17 12:49:12;;;;;;;1.55;1.45;;;8.80;99.90;;;;;;5215447;28;20251;-73
2023/05/17 12:51:46;;;;;;;1.40;1.27;;;8.80;99.90;;;;;;5191399;28;21194;-73
2023/05/17 12:54:28;;;;;;;;;;;8.90;99.90;;;;;;5187704;28;20033;-73
2023/05/17 12:57:14;;;;;;;2.17;1.88;;;9.00;99.90;;;;;;5189980;28;19913;-73
2023/05/17 12:59:50;;;;;;;1.23;1.23;;;8.90;99.90;;;;;;5204857;28;20540;-73
2023/05/17 13:02:24;;;;;;;1.60;1.50;;;9.00;99.90;;;;;;5183942;28;20044;-73
2023/05/17 13:04:57;;;;;;;2.17;1.80;;;9.00;99.90;;;;;;5190856;28;20041;-73
2023/05/17 13:07:28;;;;;;;1.73;1.42;;;8.90;99.90;;;;;;5171972;28;20033;-73
2023/05/17 13:10:00;;;;;;;2.33;1.80;;;8.90;99.90;;;;;;5195519;28;20052;-73
2023/05/17 13:12:31;;;;;;;2.13;1.90;;;8.90;99.90;;;;;;5181076;28;20048;-73
2023/05/17 13:15:09;;;;;;;1.70;1.60;;;8.80;99.90;;;;;;5207335;28;20027;-72
2023/05/17 13:17:43;;;;;;;2.85;1.67;;;8.80;99.90;;;;;;5209236;28;20051;-73
2023/05/17 13:20:15;;;;;;;1.83;1.73;;;8.80;99.90;;;;;;5199174;28;20025;-73
2023/05/17 13:22:47;;;;;;;1.60;1.50;;;8.70;99.90;;;;;;5206434;28;20043;-73
2023/05/17 13:25:21;;;;;;;2.58;1.50;;;8.80;99.90;;;;;;5202667;28;20029;-73
2023/05/17 13:27:54;;;;;;;2.08;1.92;;;8.70;99.90;;;;;;5187865;28;20341;-73
2023/05/17 13:30:28;;;;;;;2.00;1.80;;;8.80;99.90;;;;;;5182936;28;20548;-72
2023/05/17 13:32:59;;;;;;;3.03;1.85;;;8.70;99.90;;;;;;5194484;28;20031;-72